Time;durP1;ratioP1;P1;durP2;ratioP2;P2;SDS_P1;SDS_P2;PMS_P1;PMS_P2;Temp;Humidity;BMP_temperature;BMP_pressure;BME280_temperature;BME280_humidity;BME280_pressure;Samples;Min_cycle;Max_cycle;Signal;HPM_P1;HPM_P2
2022/05/30 00:01:30;;;;;;;5.23;2.70;;;11.30;99.90;;;;;;5208252;28;20207;-54
2022/05/30 00:04:01;;;;;;;2.30;2.10;;;11.30;99.90;;;;;;5226386;28;20270;-53
2022/05/30 00:06:32;;;;;;;2.77;2.57;;;11.20;99.90;;;;;;5226751;28;20179;-54
2022/05/30 00:09:03;;;;;;;4.07;2.13;;;11.20;99.90;;;;;;5228459;28;20546;-52
2022/05/30 00:11:33;;;;;;;1.80;1.67;;;11.20;99.90;;;;;;5222780;28;20253;-54
2022/05/30 00:14:04;;;;;;;2.77;2.50;;;11.10;99.90;;;;;;5221512;28;20209;-52
2022/05/30 00:16:34;;;;;;;2.40;2.20;;;11.00;99.90;;;;;;5217669;28;20261;-52
2022/05/30 00:19:05;;;;;;;2.67;2.47;;;11.00;99.90;;;;;;5222663;28;20247;-53
2022/05/30 00:21:37;;;;;;;2.83;2.60;;;10.90;99.90;;;;;;5231469;28;20207;-53
2022/05/30 00:24:07;;;;;;;2.20;2.10;;;10.80;99.90;;;;;;5232228;28;20179;-58
2022/05/30 00:26:38;;;;;;;2.53;1.80;;;10.80;99.90;;;;;;5227581;28;20488;-54
2022/05/30 00:29:08;;;;;;;2.10;2.00;;;10.70;99.90;;;;;;5222456;28;20178;-53
2022/05/30 00:31:39;;;;;;;2.63;2.17;;;10.70;99.90;;;;;;5220663;28;20272;-53
2022/05/30 00:34:10;;;;;;;2.37;2.07;;;10.70;99.90;;;;;;5225346;28;20206;-53
2022/05/30 00:36:40;;;;;;;4.60;2.80;;;10.70;99.90;;;;;;5215350;28;20640;-53
2022/05/30 00:39:11;;;;;;;2.83;2.37;;;10.80;99.90;;;;;;5229344;28;20186;-55
2022/05/30 00:41:41;;;;;;;2.20;2.10;;;10.80;99.90;;;;;;5229932;28;20566;-54
2022/05/30 00:44:12;;;;;;;1.90;1.80;;;11.00;99.90;;;;;;5228766;28;20203;-55
2022/05/30 00:46:43;;;;;;;2.50;2.30;;;11.00;99.90;;;;;;5219690;28;20765;-53
2022/05/30 00:49:14;;;;;;;5.67;2.13;;;11.10;99.90;;;;;;5223351;28;20524;-53
2022/05/30 00:51:48;;;;;;;2.00;1.90;;;11.20;99.90;;;;;;5224561;28;20210;-53
2022/05/30 00:54:25;;;;;;;2.13;1.70;;;11.20;99.90;;;;;;5224606;28;20198;-53
2022/05/30 00:56:59;;;;;;;4.20;2.50;;;11.20;99.90;;;;;;5219910;28;20557;-54
2022/05/30 00:59:30;;;;;;;2.47;2.27;;;11.20;99.90;;;;;;5237511;28;20863;-54
2022/05/30 01:02:02;;;;;;;3.60;2.03;;;11.30;99.90;;;;;;5213275;28;20585;-53
2022/05/30 01:07:22;;;;;;;1.77;1.67;;;11.30;99.90;;;;;;5218661;28;20820;-53
2022/05/30 01:09:55;;;;;;;1.60;1.50;;;11.30;99.90;;;;;;5224757;28;20442;-53
2022/05/30 01:12:41;;;;;;;1.63;1.63;;;11.40;99.90;;;;;;5225735;28;20223;-52
2022/05/30 01:15:14;;;;;;;3.87;1.40;;;11.40;99.90;;;;;;5217943;28;20418;-53
2022/05/30 01:17:50;;;;;;;1.57;1.47;;;11.40;99.90;;;;;;5231856;28;20525;-54
2022/05/30 01:20:39;;;;;;;2.73;1.53;;;11.40;99.90;;;;;;5229321;28;20474;-54
2022/05/30 01:23:40;;;;;;;2.27;2.10;;;11.30;99.90;;;;;;5228443;28;20441;-53
2022/05/30 01:26:28;;;;;;;1.47;1.47;;;11.30;99.90;;;;;;5222980;28;20476;-54
2022/05/30 01:29:09;;;;;;;2.00;1.90;;;11.30;99.90;;;;;;5228211;28;20433;-53
2022/05/30 01:31:39;;;;;;;1.70;1.70;;;11.30;99.90;;;;;;5227658;28;20460;-54
2022/05/30 01:34:10;;;;;;;4.53;1.80;;;11.30;99.90;;;;;;5221416;28;20435;-55
2022/05/30 01:36:41;;;;;;;4.20;1.50;;;11.40;99.90;;;;;;5223260;28;20282;-54
2022/05/30 01:39:11;;;;;;;2.07;1.80;;;11.30;99.90;;;;;;5229505;28;20481;-55
2022/05/30 01:41:42;;;;;;;4.00;2.00;;;11.30;99.90;;;;;;5229138;28;20328;-53
2022/05/30 01:44:14;;;;;;;3.30;2.60;;;11.40;99.90;;;;;;5226509;28;20202;-55
2022/05/30 01:46:44;;;;;;;2.30;2.20;;;11.40;99.90;;;;;;5226146;28;20190;-53
2022/05/30 01:49:15;;;;;;;2.97;2.77;;;11.30;99.90;;;;;;5221537;28;20434;-53
2022/05/30 01:51:46;;;;;;;2.33;2.23;;;11.40;99.90;;;;;;5222033;28;20207;-53
2022/05/30 01:54:16;;;;;;;2.87;2.67;;;11.30;99.90;;;;;;5213645;28;20190;-53
2022/05/30 01:56:48;;;;;;;4.47;2.93;;;11.30;99.90;;;;;;5222879;28;20321;-54
2022/05/30 01:59:19;;;;;;;2.17;2.17;;;11.40;99.90;;;;;;5203778;28;20187;-54
2022/05/30 02:01:49;;;;;;;3.93;2.77;;;11.40;99.90;;;;;;5227245;28;20472;-53
2022/05/30 02:04:20;;;;;;;3.03;2.83;;;11.30;99.90;;;;;;5224276;28;20242;-54
2022/05/30 02:06:51;;;;;;;2.90;2.80;;;11.30;99.90;;;;;;5227486;28;20183;-53
2022/05/30 02:09:23;;;;;;;3.03;2.73;;;11.30;99.90;;;;;;5225057;28;20204;-52
2022/05/30 02:11:53;;;;;;;4.40;2.50;;;11.30;99.90;;;;;;5218824;28;20497;-53
2022/05/30 02:14:24;;;;;;;2.40;2.20;;;11.20;99.90;;;;;;5227388;28;20516;-53
2022/05/30 02:17:01;;;;;;;4.63;2.47;;;11.20;99.90;;;;;;5227330;28;20203;-53
2022/05/30 02:19:38;;;;;;;4.67;3.00;;;11.10;99.90;;;;;;5230602;28;20175;-53
2022/05/30 02:22:12;;;;;;;4.07;2.10;;;11.10;99.90;;;;;;5225929;28;20458;-54
2022/05/30 02:24:43;;;;;;;9.33;3.20;;;11.00;99.90;;;;;;5227500;28;20458;-54
2022/05/30 02:27:14;;;;;;;6.07;3.40;;;10.90;99.90;;;;;;5226241;28;20520;-58
2022/05/30 02:29:45;;;;;;;7.13;3.43;;;10.90;99.90;;;;;;5229613;28;20425;-55
2022/05/30 02:32:15;;;;;;;3.10;2.70;;;10.80;99.90;;;;;;5213068;28;20446;-54
2022/05/30 02:37:35;;;;;;;3.27;2.57;;;10.70;99.90;;;;;;5225495;28;20187;-57
2022/05/30 02:40:06;;;;;;;3.00;2.80;;;10.60;99.90;;;;;;5226217;28;20429;-53
2022/05/30 02:42:37;;;;;;;4.30;3.00;;;10.60;99.90;;;;;;5224425;28;20187;-54
2022/05/30 02:45:08;;;;;;;4.27;2.97;;;10.50;99.90;;;;;;5228643;28;20472;-54
2022/05/30 02:47:38;;;;;;;2.90;2.70;;;10.50;99.90;;;;;;5211520;28;20179;-53
2022/05/30 02:50:09;;;;;;;3.20;2.80;;;10.40;99.90;;;;;;5210894;28;20190;-52
2022/05/30 02:52:40;;;;;;;3.23;3.00;;;10.40;99.90;;;;;;5227106;28;20175;-53
2022/05/30 02:55:10;;;;;;;5.47;3.40;;;10.30;99.90;;;;;;5229116;28;20191;-53
2022/05/30 02:57:41;;;;;;;4.63;3.13;;;10.30;99.90;;;;;;5223707;28;20195;-54
2022/05/30 03:00:12;;;;;;;2.90;2.70;;;10.30;99.90;;;;;;5238056;28;20190;-54
2022/05/30 03:02:43;;;;;;;3.17;2.90;;;10.30;99.90;;;;;;5231003;28;20198;-54
2022/05/30 03:05:13;;;;;;;2.70;2.60;;;10.40;99.90;;;;;;5234351;28;20840;-52
2022/05/30 03:07:44;;;;;;;3.07;2.87;;;10.50;99.90;;;;;;5224269;28;20183;-55
2022/05/30 03:10:14;;;;;;;3.30;3.10;;;10.60;99.90;;;;;;5226064;28;20231;-53
2022/05/30 03:12:45;;;;;;;3.40;3.10;;;10.70;99.90;;;;;;5220278;28;20282;-53
2022/05/30 03:15:15;;;;;;;3.73;3.33;;;10.70;99.90;;;;;;5217543;28;20582;-53
2022/05/30 03:17:46;;;;;;;5.10;3.53;;;10.80;99.90;;;;;;5224766;28;20194;-54
2022/05/30 03:20:18;;;;;;;5.47;4.40;;;10.80;99.90;;;;;;5225320;28;20522;-53
2022/05/30 03:22:49;;;;;;;3.47;3.17;;;10.80;99.90;;;;;;5225219;28;20276;-54
2022/05/30 03:25:20;;;;;;;7.20;3.60;;;10.80;99.90;;;;;;5221307;28;20548;-52
2022/05/30 03:27:55;;;;;;;5.03;3.07;;;10.90;99.90;;;;;;5221651;28;20648;-54
2022/05/30 03:30:27;;;;;;;5.77;3.67;;;10.90;99.90;;;;;;5219577;28;20202;-56
2022/05/30 03:32:58;;;;;;;4.00;3.70;;;10.90;99.90;;;;;;5218575;28;20441;-53
2022/05/30 03:35:29;;;;;;;7.57;3.93;;;10.80;99.90;;;;;;5222456;28;20485;-54
2022/05/30 03:37:59;;;;;;;4.13;3.73;;;10.70;99.90;;;;;;5221038;28;20437;-53
2022/05/30 03:40:30;;;;;;;4.43;3.50;;;10.70;99.90;;;;;;5221759;28;20223;-54
2022/05/30 03:43:01;;;;;;;4.73;4.20;;;10.60;99.90;;;;;;5219256;28;20175;-54
2022/05/30 03:45:31;;;;;;;3.83;3.60;;;10.60;99.90;;;;;;5227639;28;20253;-54
2022/05/30 03:48:02;;;;;;;3.43;3.27;;;10.60;99.90;;;;;;5223894;28;20631;-55
2022/05/30 03:50:33;;;;;;;5.10;3.27;;;10.70;99.90;;;;;;5226462;28;20286;-53
2022/05/30 03:53:07;;;;;;;9.23;4.10;;;10.80;99.90;;;;;;5218228;28;20270;-53
2022/05/30 03:55:42;;;;;;;11.00;3.40;;;10.80;99.90;;;;;;5221903;28;20266;-53
2022/05/30 03:58:14;;;;;;;5.67;3.60;;;10.90;99.90;;;;;;5219414;28;20519;-54
2022/05/30 04:00:45;;;;;;;3.40;2.63;;;11.10;99.90;;;;;;5217609;28;20777;-53
2022/05/30 04:03:15;;;;;;;5.13;2.87;;;11.10;99.90;;;;;;5227952;28;20409;-54
2022/05/30 04:05:46;;;;;;;3.40;3.20;;;11.20;99.90;;;;;;5228956;28;20468;-54
2022/05/30 04:08:17;;;;;;;4.00;3.67;;;11.10;99.90;;;;;;5228693;28;20265;-54
2022/05/30 04:10:47;;;;;;;4.00;3.60;;;11.10;99.90;;;;;;5225273;28;20570;-54
2022/05/30 04:13:18;;;;;;;3.87;3.67;;;11.00;99.90;;;;;;5223421;28;20267;-53
2022/05/30 04:15:48;;;;;;;10.63;5.33;;;11.00;99.90;;;;;;5223802;28;20623;-54
2022/05/30 04:18:19;;;;;;;6.20;5.33;;;10.90;99.90;;;;;;5231273;28;20182;-54
2022/05/30 04:20:49;;;;;;;9.00;5.70;;;10.80;99.90;;;;;;5228030;28;20218;-54
2022/05/30 04:23:20;;;;;;;11.70;5.03;;;10.80;99.90;;;;;;5226137;28;20210;-53
2022/05/30 04:25:50;;;;;;;12.97;5.27;;;10.80;99.90;;;;;;5230549;28;20211;-54
2022/05/30 04:28:21;;;;;;;12.20;5.17;;;10.70;99.90;;;;;;5224610;28;20187;-54
2022/05/30 04:30:51;;;;;;;6.90;4.67;;;10.70;99.90;;;;;;5216405;28;20223;-55
2022/05/30 04:33:22;;;;;;;14.43;5.60;;;10.70;99.90;;;;;;5235092;28;20177;-56
2022/05/30 04:35:52;;;;;;;13.93;5.33;;;10.70;99.90;;;;;;5224771;28;20189;-54
2022/05/30 04:38:23;;;;;;;14.73;4.67;;;10.70;99.90;;;;;;5220315;28;20191;-54
2022/05/30 04:40:53;;;;;;;9.90;4.50;;;10.80;99.90;;;;;;5227777;28;20214;-53
2022/05/30 04:43:24;;;;;;;12.60;4.93;;;10.90;99.90;;;;;;5219073;28;20212;-55
2022/05/30 04:46:07;;;;;;;16.17;5.10;;;10.90;99.90;;;;;;5220188;28;20276;-54
2022/05/30 04:48:38;;;;;;;10.00;3.80;;;10.90;99.90;;;;;;5224693;28;20244;-55
2022/05/30 04:51:09;;;;;;;6.63;4.00;;;10.70;99.90;;;;;;5229903;28;20688;-54
2022/05/30 04:53:40;;;;;;;10.53;4.63;;;10.70;99.90;;;;;;5217913;28;20433;-54
2022/05/30 04:56:11;;;;;;;11.83;4.73;;;10.60;99.90;;;;;;5228924;28;20433;-55
2022/05/30 04:58:41;;;;;;;6.07;3.70;;;10.60;99.90;;;;;;5227615;28;20652;-53
2022/05/30 05:01:12;;;;;;;11.53;4.50;;;10.60;99.90;;;;;;5217305;28;20253;-54
2022/05/30 05:03:44;;;;;;;11.53;4.70;;;10.70;99.90;;;;;;5214055;28;20191;-55
2022/05/30 05:06:18;;;;;;;9.20;4.13;;;10.80;99.90;;;;;;5223760;28;20540;-55
2022/05/30 05:09:05;;;;;;;14.03;4.87;;;10.90;99.90;;;;;;5221496;28;20467;-55
2022/05/30 05:11:37;;;;;;;6.93;4.30;;;10.90;99.90;;;;;;5227672;28;20518;-53
2022/05/30 05:14:08;;;;;;;20.67;4.00;;;10.90;99.90;;;;;;5212041;28;21022;-58
2022/05/30 05:16:39;;;;;;;9.07;4.10;;;10.90;99.90;;;;;;5221587;28;20455;-56
2022/05/30 05:19:10;;;;;;;4.90;3.13;;;11.00;99.90;;;;;;5218218;28;20525;-55
2022/05/30 05:21:43;;;;;;;14.87;4.77;;;10.90;99.90;;;;;;5228541;28;20532;-57
2022/05/30 05:24:16;;;;;;;9.30;3.90;;;10.90;99.90;;;;;;5206170;28;20207;-54
2022/05/30 05:26:48;;;;;;;8.37;3.57;;;10.80;99.90;;;;;;5221279;28;20438;-53
2022/05/30 05:29:19;;;;;;;13.07;4.87;;;10.80;99.90;;;;;;5228673;28;20496;-55
2022/05/30 05:31:49;;;;;;;10.23;4.73;;;10.80;99.90;;;;;;5221368;28;20513;-53
2022/05/30 05:34:20;;;;;;;11.83;5.20;;;10.80;99.90;;;;;;5226204;28;20199;-54
2022/05/30 05:36:51;;;;;;;14.90;5.50;;;10.90;99.90;;;;;;5210918;28;20179;-56
2022/05/30 05:39:21;;;;;;;21.80;9.90;;;11.00;99.90;;;;;;5225318;28;20210;-54
2022/05/30 05:41:52;;;;;;;9.57;5.80;;;11.10;99.90;;;;;;5223149;22;20294;-53
2022/05/30 05:44:22;;;;;;;11.77;5.20;;;11.20;99.90;;;;;;5182145;28;20579;-53
2022/05/30 05:46:57;;;;;;;8.17;4.17;;;11.30;99.90;;;;;;5177287;28;20659;-51
2022/05/30 05:49:27;;;;;;;16.53;4.37;;;11.50;99.90;;;;;;5181499;28;20177;-52
2022/05/30 05:51:58;;;;;;;9.13;3.70;;;12.60;99.90;;;;;;5198291;28;21041;-52
2022/05/30 05:54:31;;;;;;;10.60;4.70;;;13.60;99.90;;;;;;5179384;28;20208;-54
2022/05/30 05:57:02;;;;;;;8.93;4.00;;;13.60;99.90;;;;;;5173937;28;20631;-53
2022/05/30 05:59:33;;;;;;;13.60;5.43;;;13.30;99.90;;;;;;5185500;28;20478;-53
2022/05/30 06:02:05;;;;;;;10.33;4.47;;;13.40;99.90;;;;;;5180500;28;20478;-53
2022/05/30 06:04:40;;;;;;;10.70;4.37;;;13.10;99.90;;;;;;5184291;28;20211;-53
2022/05/30 06:07:11;;;;;;;9.20;3.47;;;12.90;99.90;;;;;;5184320;28;20936;-55
2022/05/30 06:09:41;;;;;;;10.67;3.70;;;12.70;99.90;;;;;;5183051;28;20454;-55
2022/05/30 06:12:12;;;;;;;13.60;4.50;;;12.50;99.90;;;;;;5176130;28;21197;-53
2022/05/30 06:14:42;;;;;;;12.00;4.90;;;12.30;99.90;;;;;;5175533;28;20242;-53
2022/05/30 06:17:13;;;;;;;10.30;4.77;;;12.20;99.90;;;;;;5181026;28;20299;-52
2022/05/30 06:19:46;;;;;;;16.90;4.70;;;12.10;99.90;;;;;;5182698;28;20734;-53
2022/05/30 06:22:16;;;;;;;11.20;5.00;;;11.90;99.90;;;;;;5174725;28;20570;-53
2022/05/30 06:24:48;;;;;;;8.43;6.00;;;11.90;99.90;;;;;;5184206;28;20466;-53
2022/05/30 06:27:20;;;;;;;17.97;6.17;;;11.90;99.90;;;;;;5178949;28;20179;-52
2022/05/30 06:29:51;;;;;;;17.10;7.23;;;11.90;99.90;;;;;;5172953;28;20467;-52
2022/05/30 06:32:22;;;;;;;11.70;6.13;;;12.10;99.90;;;;;;5184072;28;20988;-56
2022/05/30 06:34:53;;;;;;;13.10;5.50;;;12.10;99.90;;;;;;5180843;28;20191;-55
2022/05/30 06:37:23;;;;;;;13.13;4.50;;;12.10;99.90;;;;;;5175475;28;20641;-53
2022/05/30 06:39:54;;;;;;;15.53;4.60;;;12.10;99.90;;;;;;5185123;28;20226;-53
2022/05/30 06:42:26;;;;;;;20.77;5.60;;;12.00;99.90;;;;;;5178545;28;20219;-53
2022/05/30 06:44:56;;;;;;;14.33;4.37;;;12.00;99.90;;;;;;5175458;28;20216;-53
2022/05/30 06:47:27;;;;;;;17.50;4.67;;;12.20;99.90;;;;;;5171910;28;20444;-53
2022/05/30 06:49:57;;;;;;;8.63;4.47;;;12.20;99.90;;;;;;5184090;28;20176;-53
2022/05/30 06:52:28;;;;;;;8.70;4.03;;;12.30;99.90;;;;;;5182430;28;20207;-53
2022/05/30 06:54:58;;;;;;;22.50;5.30;;;12.10;99.90;;;;;;5183881;28;20445;-53
2022/05/30 07:00:18;;;;;;;17.00;5.03;;;12.10;99.90;;;;;;5179106;28;20192;-53
2022/05/30 07:02:51;;;;;;;13.47;4.77;;;12.10;99.90;;;;;;5183685;28;20450;-54
2022/05/30 07:05:22;;;;;;;7.03;4.00;;;12.20;99.90;;;;;;5173421;28;20470;-53
2022/05/30 07:07:56;;;;;;;12.37;3.73;;;12.40;99.90;;;;;;5182989;28;20439;-54
2022/05/30 07:10:28;;;;;;;18.13;2.90;;;12.60;99.90;;;;;;5184551;28;20177;-53
2022/05/30 07:12:59;;;;;;;11.73;3.93;;;12.70;99.90;;;;;;5179906;28;20424;-54
2022/05/30 07:15:31;;;;;;;10.93;3.30;;;12.80;99.90;;;;;;5179665;28;20445;-54
2022/05/30 07:18:13;;;;;;;6.47;3.40;;;13.20;99.90;;;;;;5177258;28;20691;-53
2022/05/30 07:20:44;;;;;;;18.00;3.60;;;13.70;99.90;;;;;;5172945;28;20455;-54
2022/05/30 07:23:14;;;;;;;11.17;3.73;;;14.00;99.90;;;;;;5181484;28;20451;-53
2022/05/30 07:25:45;;;;;;;11.10;3.07;;;14.10;99.90;;;;;;5179156;28;20227;-53
2022/05/30 07:28:15;;;;;;;8.23;2.93;;;13.90;99.90;;;;;;5182519;28;20180;-53
2022/05/30 07:30:46;;;;;;;12.47;4.23;;;13.80;99.90;;;;;;5181246;28;20279;-53
2022/05/30 07:33:17;;;;;;;13.17;4.37;;;13.70;99.90;;;;;;5180106;28;20656;-53
2022/05/30 07:35:47;;;;;;;5.13;3.77;;;13.60;99.90;;;;;;5174685;28;20551;-53
2022/05/30 07:38:18;;;;;;;10.93;3.90;;;13.50;99.90;;;;;;5183341;28;20467;-53
2022/05/30 07:40:49;;;;;;;6.53;3.33;;;13.00;99.90;;;;;;5187965;28;20223;-54
2022/05/30 07:43:19;;;;;;;8.60;4.00;;;13.00;99.90;;;;;;5187511;28;20392;-53
2022/05/30 07:45:50;;;;;;;8.63;3.70;;;13.20;99.90;;;;;;5187242;28;20214;-53
2022/05/30 07:48:21;;;;;;;20.53;4.50;;;13.20;99.90;;;;;;5181773;28;20177;-55
2022/05/30 07:50:59;;;;;;;13.87;3.23;;;13.10;99.90;;;;;;5183383;28;20256;-53
2022/05/30 07:53:30;;;;;;;11.20;3.40;;;13.00;99.90;;;;;;5185022;28;20474;-52
2022/05/30 07:56:05;;;;;;;18.30;4.23;;;13.10;99.90;;;;;;5181006;28;20440;-53
2022/05/30 07:58:39;;;;;;;13.27;3.90;;;13.00;99.90;;;;;;5184409;28;20833;-54
2022/05/30 08:01:15;;;;;;;11.07;3.30;;;13.00;99.90;;;;;;5187706;28;20459;-54
2022/05/30 08:03:47;;;;;;;15.37;3.80;;;13.10;99.90;;;;;;5185211;28;20436;-54
2022/05/30 08:06:21;;;;;;;6.23;3.53;;;13.10;99.90;;;;;;5180962;28;20466;-54
2022/05/30 08:08:52;;;;;;;8.93;3.47;;;12.90;99.90;;;;;;5181449;28;20445;-54
2022/05/30 08:11:24;;;;;;;9.90;3.67;;;12.90;99.90;;;;;;5178566;28;20470;-53
2022/05/30 08:13:55;;;;;;;12.20;3.90;;;12.80;99.90;;;;;;5183156;28;20440;-54
2022/05/30 08:16:27;;;;;;;11.97;3.60;;;12.80;99.90;;;;;;5181026;28;20450;-53
2022/05/30 08:18:57;;;;;;;8.23;2.90;;;12.90;99.90;;;;;;5187770;28;20435;-54
2022/05/30 08:21:28;;;;;;;6.47;3.60;;;13.00;99.90;;;;;;5176493;28;20569;-52
2022/05/30 08:23:58;;;;;;;6.57;3.20;;;13.40;99.90;;;;;;5175874;28;20218;-53
2022/05/30 08:26:29;;;;;;;7.70;3.00;;;13.90;99.90;;;;;;5181909;28;20205;-54
2022/05/30 08:29:00;;;;;;;16.57;7.90;;;14.20;99.90;;;;;;5182122;28;20547;-53
2022/05/30 08:31:30;;;;;;;5.57;2.90;;;14.60;99.90;;;;;;5191684;28;20319;-53
2022/05/30 08:34:01;;;;;;;9.67;5.70;;;14.80;99.90;;;;;;5188896;28;20192;-53
2022/05/30 08:36:31;;;;;;;8.57;3.53;;;15.10;99.90;;;;;;5185374;28;20536;-54
2022/05/30 08:41:52;;;;;;;4.10;2.57;;;15.30;99.90;;;;;;5178841;28;20247;-54
2022/05/30 08:44:22;;;;;;;6.40;2.37;;;15.70;99.90;;;;;;5178471;28;20467;-55
2022/05/30 08:47:00;;;;;;;11.17;3.60;;;17.00;95.70;;;;;;5197201;28;20185;-53
2022/05/30 08:49:42;;;;;;;11.63;3.10;;;17.80;89.00;;;;;;5179039;28;20226;-55
2022/05/30 08:52:31;;;;;;;12.30;2.93;;;18.00;84.70;;;;;;5187976;28;20432;-53
2022/05/30 08:55:32;;;;;;;7.93;3.17;;;18.10;79.10;;;;;;5185654;28;20811;-53
2022/05/30 08:58:06;;;;;;;7.97;3.73;;;18.60;78.00;;;;;;5181698;28;20431;-53
2022/05/30 09:00:49;;;;;;;11.40;2.90;;;18.70;75.10;;;;;;5178436;28;20804;-54
2022/05/30 09:03:26;;;;;;;3.23;2.27;;;18.70;69.20;;;;;;5176518;28;20471;-54
2022/05/30 09:06:04;;;;;;;13.47;2.10;;;18.20;67.20;;;;;;5175064;28;20463;-53
2022/05/30 09:08:52;;;;;;;12.53;2.50;;;17.70;68.10;;;;;;5181906;28;20519;-53
2022/05/30 09:11:35;;;;;;;2.37;2.17;;;17.40;69.40;;;;;;5173158;28;21025;-54
2022/05/30 09:14:13;;;;;;;5.00;2.53;;;17.20;71.10;;;;;;5182406;28;20428;-55
2022/05/30 09:16:58;;;;;;;3.77;2.70;;;17.00;68.80;;;;;;5184513;28;20975;-55
2022/05/30 09:19:29;;;;;;;4.07;2.23;;;17.10;70.40;;;;;;5181437;28;20549;-54
2022/05/30 09:22:05;;;;;;;4.63;1.80;;;17.40;70.00;;;;;;5170131;28;20448;-54
2022/05/30 09:24:38;;;;;;;7.03;2.77;;;17.60;69.40;;;;;;5183644;28;20512;-54
2022/05/30 09:27:08;;;;;;;4.20;2.50;;;18.00;68.60;;;;;;5180861;28;20968;-54
2022/05/30 09:29:51;;;;;;;2.93;1.93;;;18.10;66.40;;;;;;5179053;28;20432;-55
2022/05/30 09:32:28;;;;;;;7.10;2.53;;;17.80;66.00;;;;;;5182701;28;20597;-54
2022/05/30 09:35:25;;;;;;;5.07;2.20;;;17.50;66.80;;;;;;5181164;28;20439;-55
2022/05/30 09:38:16;;;;;;;4.83;2.70;;;17.20;65.30;;;;;;5174046;28;20525;-53
2022/05/30 09:40:54;;;;;;;1.90;1.43;;;16.90;64.10;;;;;;5183746;28;20815;-53
2022/05/30 09:43:28;;;;;;;8.17;1.67;;;16.70;65.30;;;;;;5180652;28;20710;-52
2022/05/30 09:46:16;;;;;;;5.70;2.67;;;16.50;64.70;;;;;;5175570;28;20974;-54
2022/05/30 09:49:14;;;;;;;3.00;1.60;;;16.40;67.20;;;;;;5185793;28;20427;-54
2022/05/30 09:51:54;;;;;;;4.07;1.67;;;16.50;67.10;;;;;;5173471;28;20590;-54
2022/05/30 09:54:24;;;;;;;3.03;2.00;;;16.90;67.80;;;;;;5181884;28;20431;-53
2022/05/30 09:57:02;;;;;;;6.97;1.63;;;17.20;66.20;;;;;;5179552;28;20439;-53
2022/05/30 09:59:45;;;;;;;4.40;2.70;;;17.60;66.50;;;;;;5177901;28;20632;-54
2022/05/30 10:02:27;;;;;;;2.77;2.40;;;17.70;64.60;;;;;;5177995;28;20575;-54
2022/05/30 10:05:24;;;;;;;3.83;1.43;;;17.70;64.50;;;;;;5191012;28;20495;-54
2022/05/30 10:07:59;;;;;;;4.17;2.67;;;17.70;63.60;;;;;;5180417;28;20923;-53
2022/05/30 10:10:46;;;;;;;2.97;1.60;;;17.80;62.20;;;;;;5185281;28;20427;-53
2022/05/30 10:13:34;;;;;;;1.00;0.97;;;17.80;59.60;;;;;;5183832;28;20915;-54
2022/05/30 10:16:08;;;;;;;3.30;1.30;;;18.20;59.60;;;;;;5200253;28;20847;-54
2022/05/30 10:18:56;;;;;;;2.83;1.77;;;18.50;58.70;;;;;;5178668;28;20439;-54
2022/05/30 10:28:36;;;;;;;3.20;2.37;;;18.60;57.40;;;;;;5183631;28;20868;-55
2022/05/30 10:31:39;;;;;;;4.77;2.80;;;18.40;57.20;;;;;;5185760;28;20439;-56
2022/05/30 10:34:30;;;;;;;10.10;1.60;;;17.90;56.40;;;;;;5181706;28;20426;-55
2022/05/30 10:37:20;;;;;;;9.37;3.70;;;17.50;57.00;;;;;;5172409;28;20939;-55
2022/05/30 10:40:11;;;;;;;19.37;11.40;;;17.30;54.90;;;;;;5174600;28;20501;-54
2022/05/30 10:43:02;;;;;;;8.40;3.80;;;17.30;54.00;;;;;;5174774;28;20573;-55
2022/05/30 10:46:02;;;;;;;13.90;8.90;;;17.70;53.60;;;;;;5171288;28;20468;-55
2022/05/30 10:48:37;;;;;;;20.17;12.30;;;17.80;52.50;;;;;;5183863;28;20442;-54
2022/05/30 10:51:23;;;;;;;8.23;6.20;;;17.60;52.90;;;;;;5180300;28;20450;-54
2022/05/30 10:54:09;;;;;;;9.33;4.33;;;18.10;54.00;;;;;;5173250;28;20514;-55
2022/05/30 10:56:44;;;;;;;2.50;2.30;;;18.20;52.90;;;;;;5178859;28;20428;-55
2022/05/30 10:59:40;;;;;;;3.50;1.40;;;18.30;53.30;;;;;;5179912;28;20796;-53
2022/05/30 11:02:27;;;;;;;2.40;1.50;;;18.10;52.50;;;;;;5178873;28;20452;-54
2022/05/30 11:05:15;;;;;;;4.20;1.40;;;17.70;52.70;;;;;;5176096;28;20487;-56
2022/05/30 11:08:16;;;;;;;1.83;1.33;;;17.40;52.80;;;;;;5192309;28;20450;-54
2022/05/30 11:11:26;;;;;;;3.60;1.40;;;17.60;53.30;;;;;;5171195;28;20443;-54
2022/05/30 11:14:03;;;;;;;12.10;3.90;;;17.60;52.60;;;;;;5153459;28;20803;-55
2022/05/30 11:16:48;;;;;;;2.43;0.90;;;17.30;52.20;;;;;;5184868;28;20773;-53
2022/05/30 11:19:34;;;;;;;8.17;2.13;;;17.10;51.70;;;;;;5185772;28;20447;-54
2022/05/30 11:22:47;;;;;;;3.03;1.70;;;16.90;52.50;;;;;;5180907;28;20510;-53
2022/05/30 11:25:37;;;;;;;2.87;1.53;;;16.90;51.10;;;;;;5185011;28;20919;-56
2022/05/30 11:28:35;;;;;;;1.70;1.07;;;16.80;52.40;;;;;;5177310;28;20449;-55
2022/05/30 11:31:23;;;;;;;2.10;1.00;;;16.80;53.40;;;;;;5175890;28;20509;-54
2022/05/30 11:34:19;;;;;;;10.70;6.10;;;16.90;53.50;;;;;;5174014;28;20435;-54
2022/05/30 11:37:00;;;;;;;10.00;7.27;;;17.10;52.80;;;;;;5183559;28;20532;-56
2022/05/30 11:39:53;;;;;;;1.90;1.80;;;17.40;52.80;;;;;;5183724;28;20733;-55
2022/05/30 11:42:58;;;;;;;16.23;7.70;;;17.30;53.40;;;;;;5170602;22;20495;-57
2022/05/30 11:45:51;;;;;;;9.47;2.80;;;17.00;54.20;;;;;;5159640;28;20471;-56
2022/05/30 11:48:55;;;;;;;6.63;1.50;;;17.00;55.10;;;;;;5158103;28;20427;-55
2022/05/30 11:51:31;;;;;;;14.03;7.17;;;17.30;55.60;;;;;;5151929;28;20463;-55
2022/05/30 11:54:14;;;;;;;3.67;2.57;;;17.30;55.80;;;;;;5155168;28;20526;-57
2022/05/30 11:56:55;;;;;;;6.53;2.00;;;17.20;54.80;;;;;;5151641;28;21006;-56
2022/05/30 11:59:58;;;;;;;1.10;1.00;;;17.10;55.00;;;;;;5161967;28;20440;-57
2022/05/30 12:02:58;;;;;;;6.97;1.70;;;17.30;55.40;;;;;;5154336;28;20843;-55
2022/05/30 12:05:45;;;;;;;3.40;1.37;;;17.30;55.20;;;;;;5144906;28;20480;-56
2022/05/30 12:08:35;;;;;;;6.60;1.67;;;17.40;54.80;;;;;;5155828;28;20960;-56
2022/05/30 12:11:18;;;;;;;7.47;1.50;;;17.00;54.80;;;;;;5171583;28;20452;-57
2022/05/30 12:14:03;;;;;;;2.73;1.20;;;16.60;55.40;;;;;;5164892;28;20427;-56
2022/05/30 12:16:58;;;;;;;3.63;2.00;;;16.40;55.70;;;;;;5163887;28;20500;-55
2022/05/30 12:25:34;;;;;;;6.40;2.50;;;17.00;55.60;;;;;;5159405;28;20487;-56
2022/05/30 12:28:26;;;;;;;1.67;1.40;;;17.10;55.10;;;;;;5167205;28;20428;-56
2022/05/30 12:31:08;;;;;;;1.47;1.27;;;16.80;55.10;;;;;;5158561;28;20456;-55
2022/05/30 12:33:47;;;;;;;8.50;1.83;;;16.70;55.90;;;;;;5167260;28;20444;-56
2022/05/30 12:36:18;;;;;;;1.60;1.50;;;16.80;56.30;;;;;;5166342;28;20455;-56
2022/05/30 12:38:59;;;;;;;7.13;2.60;;;16.70;53.80;;;;;;5163483;28;20953;-56
2022/05/30 12:41:38;;;;;;;6.17;2.90;;;16.70;53.90;;;;;;5146995;28;20217;-57
2022/05/30 12:44:24;;;;;;;3.70;1.60;;;16.90;54.40;;;;;;5160177;28;20424;-57
2022/05/30 12:47:09;;;;;;;3.53;1.60;;;17.10;54.20;;;;;;5163745;28;20462;-56
2022/05/30 12:49:41;;;;;;;11.90;2.90;;;17.40;53.40;;;;;;5167619;28;20432;-58
2022/05/30 12:52:21;;;;;;;6.27;4.87;;;17.70;52.70;;;;;;5161943;28;20478;-59
2022/05/30 12:54:57;;;;;;;8.63;4.00;;;17.80;52.00;;;;;;5166851;28;20472;-55
2022/05/30 12:57:43;;;;;;;3.60;1.43;;;17.80;52.00;;;;;;5165488;28;20431;-56
2022/05/30 13:00:40;;;;;;;4.33;1.97;;;18.10;51.70;;;;;;5147054;28;20440;-55
2022/05/30 13:03:29;;;;;;;2.23;1.70;;;18.00;50.50;;;;;;5146256;28;20814;-55
2022/05/30 13:06:17;;;;;;;4.67;2.53;;;18.00;50.80;;;;;;5162577;28;20463;-56
2022/05/30 13:08:59;;;;;;;3.70;2.10;;;17.90;50.60;;;;;;5160823;28;20437;-55
2022/05/30 13:11:32;;;;;;;2.93;1.67;;;17.80;50.70;;;;;;5159709;28;20514;-54
2022/05/30 13:14:36;;;;;;;1.40;1.40;;;17.60;50.00;;;;;;5176961;28;20470;-56
2022/05/30 13:17:19;;;;;;;3.10;1.73;;;17.40;50.80;;;;;;5155953;28;20425;-57
2022/05/30 13:19:53;;;;;;;3.20;1.60;;;17.70;51.20;;;;;;5158560;28;20420;-54
2022/05/30 13:22:41;;;;;;;1.20;1.10;;;17.90;50.70;;;;;;5158183;28;20512;-55
2022/05/30 13:25:40;;;;;;;1.30;0.93;;;17.60;49.00;;;;;;5164348;28;20514;-56
2022/05/30 13:28:28;;;;;;;5.37;1.43;;;17.00;50.10;;;;;;5151724;28;20444;-56
2022/05/30 13:31:02;;;;;;;4.50;1.30;;;17.00;51.20;;;;;;5164793;28;20452;-56
2022/05/30 13:33:35;;;;;;;3.87;1.47;;;17.40;50.60;;;;;;5157257;28;20466;-55
2022/05/30 13:36:18;;;;;;;3.93;3.57;;;17.70;49.80;;;;;;5159418;28;20452;-55
2022/05/30 13:38:51;;;;;;;7.10;3.70;;;17.50;50.20;;;;;;5161649;28;20958;-56
2022/05/30 13:41:22;;;;;;;6.47;3.30;;;17.50;50.90;;;;;;5165498;28;20460;-56
2022/05/30 13:43:56;;;;;;;1.23;1.20;;;17.60;50.80;;;;;;5160890;28;20421;-56
2022/05/30 13:46:32;;;;;;;6.23;3.43;;;17.60;51.10;;;;;;5160614;28;20205;-56
2022/05/30 13:49:02;;;;;;;7.50;5.07;;;17.60;49.70;;;;;;5156719;28;20441;-56
2022/05/30 13:51:35;;;;;;;2.70;1.20;;;17.50;49.40;;;;;;5154794;28;20460;-56
2022/05/30 13:54:08;;;;;;;2.97;1.90;;;17.40;50.50;;;;;;5159210;28;20310;-55